21kousinmaru — JD2168 — position and weather

sailwx.info

Track history (hours):
 
Tides and Currents Weather Stations Pressure Air Temp Water Temp Dewpoint Dewpoint Depression Visibility Wind Speed Wind Dir Waves Ship Positions

21kousinmaru

Last reported at 2017-Jul-21 09:08 UTC. Time now 2017-Jul-21 16:44 UTC.
Position N 35°03' E 139°34'.

Length 68 m; draft 4.6 m.

MMSI: 431501835.

Date/timePositionNaut miles runAvg speedWind from/ knotsBaromVisibWave heightAir tempDewpointWater temp
2017-Jul-21 09:08N 35°03' E 139°34'412.0
2017-Jul-21 08:49N 35°05' E 139°38'412.1
2017-Jul-21 08:30N 35°07' E 139°42'611.5
2017-Jul-21 08:00N 35°12' E 139°46'611.0
2017-Jul-21 07:30N 35°17' E 139°45'611.4
2017-Jul-21 07:00N 35°23' E 139°42'611.4
2017-Jul-21 06:31N 35°28' E 139°42'3 6.1
2017-Jul-21 06:00N 35°30' E 139°45'0 0.0
2017-Jul-21 05:30N 35°30' E 139°45'0 0.0
2017-Jul-21 05:00N 35°30' E 139°45'0 0.0
2017-Jul-21 04:30N 35°30' E 139°45'0 0.0
2017-Jul-21 04:00N 35°30' E 139°45'0 0.0
2017-Jul-21 03:21N 35°30' E 139°45'0 0.0
2017-Jul-21 03:00N 35°30' E 139°45'0 0.0
2017-Jul-21 02:30N 35°30' E 139°45'0 0.0
2017-Jul-21 02:00N 35°30' E 139°45'0 0.0
2017-Jul-21 01:30N 35°30' E 139°45'0 0.0
2017-Jul-21 01:00N 35°30' E 139°45'2 4.6
2017-Jul-21 00:30N 35°29' E 139°42'3 6.4
2017-Jul-21 00:00N 35°27' E 139°46'3 6.6
2017-Jul-20 23:30N 35°29' E 139°49'0 0.0
2017-Jul-20 22:43N 35°29' E 139°49'0 0.0
2017-Jul-20 22:25N 35°29' E 139°49'0 0.0
2017-Jul-20 21:55N 35°29' E 139°49'0 0.0
2017-Jul-20 21:28N 35°29' E 139°49'0 0.0
2017-Jul-20 20:58N 35°29' E 139°49'0 0.0
2017-Jul-20 20:28N 35°29' E 139°49'0 0.0
2017-Jul-20 19:58N 35°29' E 139°49'0 0.0
2017-Jul-20 19:22N 35°29' E 139°49'0 0.0
2017-Jul-20 17:55N 35°29' E 139°49'0 0.1
2017-Jul-20 17:10N 35°29' E 139°49'0 0.0
2017-Jul-20 16:40N 35°29' E 139°49'0 0.0
2017-Jul-20 16:22N 35°29' E 139°49'0 0.0
2017-Jul-20 15:43N 35°29' E 139°49'0 0.0
2017-Jul-20 15:19N 35°29' E 139°49'0 0.0
2017-Jul-20 14:58N 35°29' E 139°49'0 0.0
2017-Jul-20 13:58N 35°29' E 139°49'0 0.0
2017-Jul-20 13:28N 35°29' E 139°49'0 0.1
2017-Jul-20 12:58N 35°29' E 139°49'2 4.9
2017-Jul-20 12:30N 35°27' E 139°48'713.2
2017-Jul-20 12:00N 35°21' E 139°45'612.0
2017-Jul-20 11:30N 35°15' E 139°47'713.0
2017-Jul-20 11:00N 35°09' E 139°46'612.1
2017-Jul-20 10:30N 35°04' E 139°42'712.9
2017-Jul-20 10:00N 34°60' E 139°36'  
2017-Jul-17 07:10N 35°03' E 139°32'512.4
2017-Jul-17 06:46N 35°05' E 139°38'312.4
2017-Jul-17 06:30N 35°07' E 139°41'612.4
2017-Jul-17 06:00N 35°12' E 139°46'612.3
2017-Jul-17 05:30N 35°18' E 139°44'612.3
2017-Jul-17 05:00N 35°24' E 139°43'612.9
2017-Jul-17 04:30N 35°29' E 139°47'2 4.1
2017-Jul-17 04:00N 35°31' E 139°46'0 0.0
2017-Jul-17 03:30N 35°31' E 139°46'0 0.0
2017-Jul-17 03:00N 35°31' E 139°46'0 0.0
2017-Jul-17 02:30N 35°31' E 139°46'0 0.0
2017-Jul-17 02:00N 35°31' E 139°46'0 0.0
2017-Jul-17 01:30N 35°31' E 139°46'0 0.0
2017-Jul-17 01:00N 35°31' E 139°46'0 0.0
2017-Jul-17 00:30N 35°31' E 139°46'1 2.1
2017-Jul-17 00:00N 35°30' E 139°47'2 3.6
2017-Jul-16 23:30N 35°29' E 139°49'0 0.0
2017-Jul-16 22:58N 35°29' E 139°49'0 0.0
2017-Jul-16 22:28N 35°29' E 139°49'0 0.0
2017-Jul-16 21:58N 35°29' E 139°49'0 0.0
2017-Jul-16 21:28N 35°29' E 139°49'0 0.0
2017-Jul-16 20:58N 35°29' E 139°49'0 0.0
2017-Jul-16 20:28N 35°29' E 139°49'0 0.0
2017-Jul-16 19:58N 35°29' E 139°49'0 0.0
2017-Jul-16 19:28N 35°29' E 139°49'0 0.0
2017-Jul-16 18:58N 35°29' E 139°49'0 0.0
2017-Jul-16 18:28N 35°29' E 139°49'0 0.0
2017-Jul-16 17:58N 35°29' E 139°49'0 0.0
2017-Jul-16 17:28N 35°29' E 139°49'0 1.1
2017-Jul-16 17:00N 35°28' E 139°48'611.9
2017-Jul-16 16:30N 35°23' E 139°46'611.3
2017-Jul-16 16:00N 35°17' E 139°45'611.3
2017-Jul-16 15:30N 35°12' E 139°47'612.7
2017-Jul-16 15:00N 35°06' E 139°45'713.0
2017-Jul-16 14:30N 34°59' E 139°44'  
Track history (hours):
 
Tides and Currents Weather Stations Pressure Air Temp Water Temp Dewpoint Dewpoint Depression Visibility Wind Speed Wind Dir Waves Ship Positions

21kousinmaru

Last reported at 2017-Jul-21 09:08 UTC. Time now 2017-Jul-21 16:44 UTC.
Position N 35°03' E 139°34'.

Length 68 m; draft 4.6 m.

MMSI: 431501835.

Date/timePositionNaut miles runAvg speedWind from/ knotsBaromVisibWave heightAir tempDewpointWater temp
2017-Jul-21 09:08N 35°03' E 139°34'412.0
2017-Jul-21 08:49N 35°05' E 139°38'412.1
2017-Jul-21 08:30N 35°07' E 139°42'611.5
2017-Jul-21 08:00N 35°12' E 139°46'611.0
2017-Jul-21 07:30N 35°17' E 139°45'611.4
2017-Jul-21 07:00N 35°23' E 139°42'611.4
2017-Jul-21 06:31N 35°28' E 139°42'3 6.1
2017-Jul-21 06:00N 35°30' E 139°45'0 0.0
2017-Jul-21 05:30N 35°30' E 139°45'0 0.0
2017-Jul-21 05:00N 35°30' E 139°45'0 0.0
2017-Jul-21 04:30N 35°30' E 139°45'0 0.0
2017-Jul-21 04:00N 35°30' E 139°45'0 0.0
2017-Jul-21 03:21N 35°30' E 139°45'0 0.0
2017-Jul-21 03:00N 35°30' E 139°45'0 0.0
2017-Jul-21 02:30N 35°30' E 139°45'0 0.0
2017-Jul-21 02:00N 35°30' E 139°45'0 0.0
2017-Jul-21 01:30N 35°30' E 139°45'0 0.0
2017-Jul-21 01:00N 35°30' E 139°45'2 4.6
2017-Jul-21 00:30N 35°29' E 139°42'3 6.4
2017-Jul-21 00:00N 35°27' E 139°46'3 6.6
2017-Jul-20 23:30N 35°29' E 139°49'0 0.0
2017-Jul-20 22:43N 35°29' E 139°49'0 0.0
2017-Jul-20 22:25N 35°29' E 139°49'0 0.0
2017-Jul-20 21:55N 35°29' E 139°49'0 0.0
2017-Jul-20 21:28N 35°29' E 139°49'0 0.0
2017-Jul-20 20:58N 35°29' E 139°49'0 0.0
2017-Jul-20 20:28N 35°29' E 139°49'0 0.0
2017-Jul-20 19:58N 35°29' E 139°49'0 0.0
2017-Jul-20 19:22N 35°29' E 139°49'0 0.0
2017-Jul-20 17:55N 35°29' E 139°49'0 0.1
2017-Jul-20 17:10N 35°29' E 139°49'0 0.0
2017-Jul-20 16:40N 35°29' E 139°49'0 0.0
2017-Jul-20 16:22N 35°29' E 139°49'0 0.0
2017-Jul-20 15:43N 35°29' E 139°49'0 0.0
2017-Jul-20 15:19N 35°29' E 139°49'0 0.0
2017-Jul-20 14:58N 35°29' E 139°49'0 0.0
2017-Jul-20 13:58N 35°29' E 139°49'0 0.0
2017-Jul-20 13:28N 35°29' E 139°49'0 0.1
2017-Jul-20 12:58N 35°29' E 139°49'2 4.9
2017-Jul-20 12:30N 35°27' E 139°48'713.2
2017-Jul-20 12:00N 35°21' E 139°45'612.0
2017-Jul-20 11:30N 35°15' E 139°47'713.0
2017-Jul-20 11:00N 35°09' E 139°46'612.1
2017-Jul-20 10:30N 35°04' E 139°42'712.9
2017-Jul-20 10:00N 34°60' E 139°36'  
2017-Jul-17 07:10N 35°03' E 139°32'512.4
2017-Jul-17 06:46N 35°05' E 139°38'312.4
2017-Jul-17 06:30N 35°07' E 139°41'612.4
2017-Jul-17 06:00N 35°12' E 139°46'612.3
2017-Jul-17 05:30N 35°18' E 139°44'612.3
2017-Jul-17 05:00N 35°24' E 139°43'612.9
2017-Jul-17 04:30N 35°29' E 139°47'2 4.1
2017-Jul-17 04:00N 35°31' E 139°46'0 0.0
2017-Jul-17 03:30N 35°31' E 139°46'0 0.0
2017-Jul-17 03:00N 35°31' E 139°46'0 0.0
2017-Jul-17 02:30N 35°31' E 139°46'0 0.0
2017-Jul-17 02:00N 35°31' E 139°46'0 0.0
2017-Jul-17 01:30N 35°31' E 139°46'0 0.0
2017-Jul-17 01:00N 35°31' E 139°46'0 0.0
2017-Jul-17 00:30N 35°31' E 139°46'1 2.1
2017-Jul-17 00:00N 35°30' E 139°47'2 3.6
2017-Jul-16 23:30N 35°29' E 139°49'0 0.0
2017-Jul-16 22:58N 35°29' E 139°49'0 0.0
2017-Jul-16 22:28N 35°29' E 139°49'0 0.0
2017-Jul-16 21:58N 35°29' E 139°49'0 0.0
2017-Jul-16 21:28N 35°29' E 139°49'0 0.0
2017-Jul-16 20:58N 35°29' E 139°49'0 0.0
2017-Jul-16 20:28N 35°29' E 139°49'0 0.0
2017-Jul-16 19:58N 35°29' E 139°49'0 0.0
2017-Jul-16 19:28N 35°29' E 139°49'0 0.0
2017-Jul-16 18:58N 35°29' E 139°49'0 0.0
2017-Jul-16 18:28N 35°29' E 139°49'0 0.0
2017-Jul-16 17:58N 35°29' E 139°49'0 0.0
2017-Jul-16 17:28N 35°29' E 139°49'0 1.1
2017-Jul-16 17:00N 35°28' E 139°48'611.9
2017-Jul-16 16:30N 35°23' E 139°46'611.3
2017-Jul-16 16:00N 35°17' E 139°45'611.3
2017-Jul-16 15:30N 35°12' E 139°47'612.7
2017-Jul-16 15:00N 35°06' E 139°45'713.0
2017-Jul-16 14:30N 34°59' E 139°44'  

Dump ship's entire track history